Terminal Aerodrome Forecast
Issued by NWS Omaha/Valley, NE

Home | Current Version | Previous Version | Text Only | Print | Product List | Glossary On
Versions: 1 2 3 4 5 6 7 8 9 10 11 12 13 14 15 16 17 18 19 20 21 22 23 24 25 26 27 28 29 30 31 32
000
FTUS43 KOAX 042320
TAFOFK
TAF
KOFK 042320Z 0500/0524 16013G20KT P6SM FEW050 BKN150
     FM050300 17013KT P6SM SCT120 SCT250 WS020/19040KT
     FM050800 18011KT P6SM BKN120 WS020/20042KT
     FM051500 18016G23KT P6SM SCT120 BKN200=

USA.gov is the U.S. government's official web portal to all federal, state and local government web resources and services.